Airport Name : North Island NAS

Other Name : North Island NAS

ICAO : KNZY

IATA : NZY

FAA : NZY

Latitude : 32.699219

Longitude : -117.21531

Country : United States

Local Date and Time : 15 Jan 2021 07:26

 

TAF (Terminal Aerodrome Forecast)

TAF KNZY 1515/1615 VRB06KT 9999 FEW250 520202 560406 QNH3008INS FM152000 33011KT 9999 SCT250 520202 530406 QNH3001INS FM160300 VRB06KT 9999 FEW250 520208 QNH3005INS T27/1521Z T12/1612Z FS30139

 

METAR (METeorological Aerodrome Report)

KNZY 151452Z 00000KT 10SM FEW250 11/04 A3011 RMK AO2 SLP197 T01110039 51014

KNZY 151352Z 00000KT 9SM FEW250 12/06 A3010 RMK AO2 SLP193 T01170056

KNZY 151252Z 00000KT 8SM FEW250 12/05 A3009 RMK AO2 SLP189 T01220050

KNZY 151152Z 00000KT 8SM FEW250 14/04 A3008 RMK AO2 SLP184 T01390039 10167 20122 58015

To Charter a Jet Click here.